Flight Track Log - Related Links

Times and Time Zones

All times are in EDT time to prevent confusion due to time zone crossing. See the DAL268 flight status page for this flight to view local times or setup timezone preferences in your user account.

Time Position Orientation Groundspeed Altitude Reporting Facility
EDT Latitude Longitude Course Direction KTS MPH feet Rate Location/Type
Fri 12:44:00 AM 43.0029 -68.0920 55° Northeast  Level Estimated
Fri 12:44:36 AM 41.5281 -70.3189 58° Northeast 537 618 31,000  Level Boston Center
Fri 12:45:00 AM 43.0814 -67.9200 58° Northeast  Level Estimated
Fri 12:45:36 AM 41.6167 -70.1575 54° Northeast 542 624 31,000  Level Boston Center
Fri 12:46:00 AM 43.1597 -67.7475 58° Northeast  Level Estimated
Fri 12:46:36 AM 41.6986 -69.9933 56° Northeast 537 618 31,000  Level Boston Center
Fri 12:47:00 AM 43.2377 -67.5746 58° Northeast  Level Estimated
Fri 12:47:35 AM 41.7644 -69.8628 56° Northeast 532 612 31,000  Level Boston Center
Fri 12:48:00 AM 43.3155 -67.4013 58° Northeast  Level Estimated
Fri 12:48:35 AM 41.8642 -69.6661 56° Northeast 532 612 31,000  Level Boston Center
Fri 12:49:00 AM 43.3930 -67.2275 58° Northeast  Level Estimated
Fri 12:49:34 AM 41.9517 -69.4978 55° Northeast 538 619 31,000  Level Boston Center
Fri 12:50:34 AM 42.0392 -69.3397 53° Northeast 538 619 31,000  Level Boston Center
Fri 12:51:36 AM 42.1217 -69.1678 57° Northeast 538 619 31,000  Level Boston Center
Fri 12:52:36 AM 42.1967 -69.0181 56° Northeast 538 619 31,000  Level Boston Center
Fri 12:54:00 AM 42.3060 -68.7877 62° Northeast  Level Estimated
Fri 12:58:38 AM 42.6833 -67.9833 62° Northeast 550 633 31,000  Level Moncton Center
Fri 01:00:00 AM 42.7908 -67.7489 58° Northeast  Level Estimated
Fri 01:01:00 AM 42.7101 -67.4877 62° Northeast  Level FlightAware Approximate
Fri 01:02:00 AM 42.7790 -67.3088 62° Northeast  Level FlightAware Approximate
Fri 01:03:00 AM 42.8476 -67.1295 62° Northeast  Level FlightAware Approximate
Fri 01:03:38 AM 43.1167 -67.1000 59° Northeast 550 633 31,100  Level Moncton Center
Fri 01:05:00 AM 43.2223 -66.8624 58° Northeast  Level Estimated
Fri 01:07:00 AM 43.3336 -66.5354 58° Northeast  Level Estimated
Fri 01:08:00 AM 43.4101 -66.3603 59° Northeast  Level Estimated
Fri 01:12:00 AM 43.8215 -65.6909 54° Northeast  Level FlightAware Approximate
Fri 01:13:00 AM 43.9062 -65.5215 55° Northeast  Level FlightAware Approximate
Fri 01:14:00 AM 43.9883 -65.3493 59° Northeast  Level FlightAware Approximate
Fri 01:15:00 AM 44.0639 -65.1713 59° Northeast  Level FlightAware Approximate
Fri 01:16:00 AM 44.1391 -64.9929 60° Northeast  Level FlightAware Approximate
Fri 01:17:00 AM 44.2141 -64.8140 60° Northeast  Level FlightAware Approximate
Fri 01:18:00 AM 44.2889 -64.6346 60° Northeast  Level FlightAware Approximate
Fri 01:19:00 AM 44.3633 -64.4548 60° Northeast  Level FlightAware Approximate
Fri 01:20:00 AM 44.4375 -64.2745 60° Northeast  Level FlightAware Approximate
Fri 01:21:00 AM 44.5114 -64.0938 60° Northeast  Level FlightAware Approximate
Fri 01:22:00 AM 44.5850 -63.9126 60° Northeast  Level FlightAware Approximate
Fri 01:23:00 AM 44.6600 -63.7324 60° Northeast  Level FlightAware Approximate
Fri 01:24:00 AM 44.7348 -63.5517 60° Northeast  Level FlightAware Approximate
Fri 01:25:00 AM 44.8092 -63.3705 60° Northeast  Level FlightAware Approximate
Fri 01:26:00 AM 44.8834 -63.1888 60° Northeast  Level FlightAware Approximate
Fri 01:27:00 AM 44.9573 -63.0067 60° Northeast  Level FlightAware Approximate
Fri 01:28:00 AM 45.0309 -62.8241 60° Northeast  Level FlightAware Approximate
Fri 01:29:00 AM 45.1042 -62.6411 60° Northeast  Level FlightAware Approximate
Fri 01:30:00 AM 45.1772 -62.4575 61° Northeast  Level FlightAware Approximate
Fri 01:31:00 AM 45.2497 -62.2733 61° Northeast  Level FlightAware Approximate
Fri 01:32:00 AM 45.3218 -62.0886 61° Northeast  Level FlightAware Approximate
Fri 01:33:00 AM 45.3935 -61.9034 61° Northeast  Level FlightAware Approximate
Fri 01:34:00 AM 45.4650 -61.7177 61° Northeast  Level FlightAware Approximate
Fri 01:34:53 AM 45.5000 -61.4667 63° Northeast 520 598 33,100  Level Gander Center
Fri 01:35:00 AM 45.5362 -61.5315 61° Northeast  Level FlightAware Approximate
Fri 01:36:00 AM 45.6070 -61.3449 61° Northeast  Level FlightAware Approximate
Fri 01:37:00 AM 45.6751 -61.1560 63° Northeast  Level FlightAware Approximate
Fri 01:37:00 AM 45.6502 -61.0713 62° Northeast  Level FlightAware Approximate
Fri 01:37:53 AM 45.7000 -60.9500 62° Northeast 520 598 33,100  Level Gander Center
Fri 01:38:00 AM 45.7428 -60.9667 63° Northeast  Level FlightAware Approximate
Fri 01:39:00 AM 45.8103 -60.7765 63° Northeast  Level FlightAware Approximate
Fri 01:39:00 AM 45.7774 -60.7395 62° Northeast  Level FlightAware Approximate
Fri 01:40:00 AM 45.8776 -60.5858 63° Northeast  Level FlightAware Approximate
Fri 01:46:00 AM 46.2538 -59.4068 62° Northeast  Level FlightAware Approximate
Fri 01:47:00 AM 46.3206 -59.2145 63° Northeast  Level FlightAware Approximate
Fri 01:48:00 AM 46.3870 -59.0218 63° Northeast  Level FlightAware Approximate
Fri 01:49:00 AM 46.4532 -58.8285 64° Northeast  Level FlightAware Approximate
Fri 01:50:00 AM 46.5190 -58.6349 64° Northeast  Level FlightAware Approximate
Fri 01:51:00 AM 46.5844 -58.4407 64° Northeast  Level FlightAware Approximate
Fri 01:52:00 AM 46.6496 -58.2461 64° Northeast  Level FlightAware Approximate
Fri 01:53:00 AM 46.7144 -58.0510 64° Northeast  Level FlightAware Approximate
Fri 01:54:00 AM 46.7789 -57.8555 64° Northeast  Level FlightAware Approximate
Fri 01:55:00 AM 46.8430 -57.6595 64° Northeast  Level FlightAware Approximate
Fri 01:56:00 AM 46.9068 -57.4630 65° Northeast  Level FlightAware Approximate
Fri 01:57:00 AM 46.9703 -57.2660 65° Northeast  Level FlightAware Approximate
Fri 01:58:00 AM 47.0335 -57.0686 65° Northeast  Level FlightAware Approximate
Fri 01:59:00 AM 47.1059 -56.8791 65° Northeast  Level FlightAware Approximate
Fri 02:00:00 AM 47.1686 -56.6809 65° Northeast  Level FlightAware Approximate
Fri 02:01:00 AM 47.2310 -56.4822 65° Northeast  Level FlightAware Approximate
Fri 02:02:00 AM 47.2931 -56.2831 65° Northeast  Level FlightAware Approximate
Fri 02:03:00 AM 47.3548 -56.0835 65° Northeast  Level FlightAware Approximate
Fri 02:04:00 AM 47.4162 -55.8834 66° East  Level FlightAware Approximate
Fri 02:05:00 AM 47.4772 -55.6829 66° East  Level FlightAware Approximate
Fri 02:06:00 AM 47.5378 -55.4819 66° East  Level FlightAware Approximate
Fri 02:07:00 AM 47.5981 -55.2805 66° East  Level FlightAware Approximate
Fri 02:08:00 AM 47.6581 -55.0785 66° East  Level FlightAware Approximate
Fri 02:09:00 AM 47.7177 -54.8762 66° East  Level FlightAware Approximate
Fri 02:10:00 AM 47.7769 -54.6733 66° East  Level FlightAware Approximate
Fri 02:11:00 AM 47.8358 -54.4700 67° East  Level FlightAware Approximate
Fri 02:12:00 AM 47.8943 -54.2662 67° East  Level FlightAware Approximate
Fri 02:13:00 AM 47.9525 -54.0620 67° East  Level FlightAware Approximate
Fri 02:14:00 AM 48.0103 -53.8573 67° East  Level FlightAware Approximate
Fri 02:15:00 AM 48.0677 -53.6522 67° East  Level FlightAware Approximate
Fri 02:16:00 AM 48.1248 -53.4466 67° East  Level FlightAware Approximate
Fri 02:17:00 AM 48.1815 -53.2405 68° East  Level FlightAware Approximate
Fri 02:18:00 AM 48.2378 -53.0340 68° East  Level FlightAware Approximate
Fri 02:19:00 AM 48.2936 -52.8278 68° East  Level FlightAware Approximate
Fri 02:20:00 AM 48.3490 -52.6212 68° East  Level FlightAware Approximate
Fri 02:21:00 AM 48.4040 -52.4139 68° East  Level FlightAware Approximate
Fri 02:22:00 AM 48.4587 -52.2062 68° East  Level FlightAware Approximate
Fri 02:23:00 AM 48.5130 -51.9981 68° East  Level FlightAware Approximate
Fri 02:24:00 AM 48.5670 -51.7895 69° East  Level FlightAware Approximate
Fri 02:24:43 AM 48.5090 -51.7100 69° East 548 631 33,100  Level FlightAware ADS-B
Fri 02:25:23 AM 48.5450 -51.5690 69° East 549 632 33,100  Level FlightAware ADS-B
Fri 02:26:03 AM 48.5810 -51.4230 70° East 550 633 33,100  Level FlightAware ADS-B
Fri 02:26:38 AM 48.6110 -51.3010 70° East 549 632 33,100  Level FlightAware ADS-B
Fri 02:27:21 AM 48.6480 -51.1520 69° East 550 633 33,100  Level FlightAware ADS-B
Fri 02:27:58 AM 48.6830 -51.0110 69° East 548 631 33,100  Level FlightAware ADS-B
Fri 02:28:51 AM 48.7240 -50.8390 70° East 548 631 33,100  Level FlightAware ADS-B
Fri 02:29:28 AM 48.7620 -50.6850 69° East 548 631 33,100  Level FlightAware ADS-B
Fri 02:29:59 AM 48.7880 -50.5740 70° East 548 631 33,100  Level FlightAware ADS-B
Fri 02:30:43 AM 48.8270 -50.4130 70° East 548 631 33,100  Level FlightAware ADS-B
Fri 02:31:18 AM 48.8560 -50.2880 71° East 547 629 33,100  Level FlightAware ADS-B
Fri 02:32:01 AM 48.8860 -50.1540 71° East 547 629 33,100  Level FlightAware ADS-B
Fri 02:32:37 AM 48.9120 -50.0420 71° East 547 629 33,100  Level FlightAware ADS-B
Fri 02:33:13 AM 48.9370 -49.9310 71° East 547 629 33,100  Level FlightAware ADS-B
Fri 02:33:49 AM 48.9620 -49.8200 71° East 547 629 33,100  Level FlightAware ADS-B
Fri 02:34:25 AM 48.9870 -49.7080 71° East 547 629 33,100  Level FlightAware ADS-B
Fri 02:35:01 AM 49.0120 -49.5960 71° East 547 629 33,100  Level FlightAware ADS-B
Fri 02:35:37 AM 49.0380 -49.4850 70° East 547 629 33,100  Level FlightAware ADS-B
Fri 02:36:13 AM 49.0630 -49.3730 71° East 547 629 33,100  Level FlightAware ADS-B
Fri 02:36:49 AM 49.0880 -49.2610 71° East 547 629 33,100  Level FlightAware ADS-B
Fri 02:37:26 AM 49.1140 -49.1460 71° East 547 629 33,100  Level FlightAware ADS-B
Fri 02:38:44 AM 49.0500 -48.4667 88° East 540 621 33,100 -2 Level Gander Center
Fri 02:40:00 AM 49.0660 -48.5688 97° East  Level FlightAware Approximate
Fri 02:40:00 AM 49.0572 -48.2140 87° East  Level FlightAware Approximate
Fri 02:41:00 AM 49.0515 -48.3331 87° East  Level FlightAware Approximate
Fri 02:42:00 AM 49.0578 -48.1068 87° East  Level FlightAware Approximate
Fri 02:43:00 AM 49.0637 -47.8805 88° East  Level FlightAware Approximate
Fri 02:44:00 AM 49.0692 -47.6540 88° East  Level FlightAware Approximate
Fri 02:47:00 AM 49.0896 -46.6284 88° East  Level FlightAware Approximate
Fri 02:48:00 AM 49.0925 -46.4018 89° East  Level FlightAware Approximate
Fri 02:49:00 AM 49.0949 -46.1751 89° East  Level FlightAware Approximate
Fri 02:50:00 AM 49.0969 -45.9484 89° East  Level FlightAware Approximate
Fri 02:51:00 AM 49.0984 -45.7217 89° East  Level FlightAware Approximate
Fri 02:52:00 AM 49.0995 -45.4950 89° East  Level FlightAware Approximate
Fri 02:53:00 AM 49.1001 -45.2683 90° East  Level FlightAware Approximate
Fri 02:54:00 AM 49.1003 -45.0415 90° East  Level FlightAware Approximate
Fri 02:55:00 AM 49.1403 -44.8231 90° East  Level Estimated
Fri 02:56:00 AM 49.1382 -44.5962 91° East  Level FlightAware Approximate
Fri 02:57:00 AM 49.1357 -44.3693 91° East  Level FlightAware Approximate
Fri 02:58:00 AM 49.1327 -44.1425 91° East  Level FlightAware Approximate
Fri 02:59:00 AM 49.1293 -43.9157 91° East  Level FlightAware Approximate
Fri 03:00:00 AM 49.1255 -43.6889 91° East  Level FlightAware Approximate
Fri 03:01:00 AM 49.1211 -43.4622 92° East  Level FlightAware Approximate
Fri 03:02:00 AM 49.1164 -43.2355 92° East  Level FlightAware Approximate
Fri 03:03:00 AM 49.1112 -43.0088 92° East  Level FlightAware Approximate
Fri 03:04:00 AM 49.1056 -42.7822 92° East  Level FlightAware Approximate
Fri 03:05:00 AM 49.0995 -42.5556 92° East  Level FlightAware Approximate
Fri 03:06:00 AM 49.0930 -42.3291 92° East  Level FlightAware Approximate
Fri 03:07:00 AM 49.0860 -42.1027 93° East  Level FlightAware Approximate
Fri 03:08:00 AM 49.0786 -41.8763 93° East  Level FlightAware Approximate
Fri 03:09:00 AM 49.0707 -41.6500 93° East  Level FlightAware Approximate
Fri 03:10:00 AM 49.0624 -41.4238 93° East  Level FlightAware Approximate
Fri 03:11:00 AM 49.0537 -41.1977 93° East  Level FlightAware Approximate
Fri 03:12:00 AM 49.0445 -40.9716 93° East  Level FlightAware Approximate
Fri 03:13:00 AM 49.0349 -40.7456 94° East  Level FlightAware Approximate
Fri 03:14:00 AM 49.0248 -40.5197 94° East  Level FlightAware Approximate
Fri 03:15:00 AM 49.0143 -40.2939 94° East  Level FlightAware Approximate
Fri 03:16:00 AM 49.0466 -40.0729 77° East  Level Estimated
Fri 03:17:00 AM 49.0775 -39.8513 78° East  Level FlightAware Approximate
Fri 03:18:00 AM 49.1081 -39.6295 78° East  Level FlightAware Approximate
Fri 03:19:00 AM 49.1381 -39.4073 78° East  Level FlightAware Approximate
Fri 03:20:00 AM 49.1678 -39.1849 78° East  Level FlightAware Approximate
Fri 03:21:00 AM 49.1970 -38.9623 79° East  Level FlightAware Approximate
Fri 03:22:00 AM 49.2258 -38.7393 79° East  Level FlightAware Approximate
Fri 03:23:00 AM 49.2542 -38.5162 79° East  Level FlightAware Approximate
Fri 03:24:00 AM 49.2821 -38.2927 79° East  Level FlightAware Approximate
Fri 03:25:00 AM 49.3096 -38.0690 79° East  Level FlightAware Approximate
Fri 03:26:00 AM 49.3367 -37.8451 79° East  Level FlightAware Approximate
Fri 03:27:00 AM 49.3633 -37.6209 80° East  Level FlightAware Approximate
Fri 03:28:00 AM 49.3895 -37.3965 80° East  Level FlightAware Approximate
Fri 03:29:00 AM 49.4153 -37.1718 80° East  Level FlightAware Approximate
Fri 03:30:00 AM 49.4407 -36.9469 80° East  Level FlightAware Approximate
Fri 03:31:00 AM 49.4656 -36.7218 80° East  Level FlightAware Approximate
Fri 03:32:00 AM 49.4900 -36.4965 80° East  Level FlightAware Approximate
Fri 03:33:00 AM 49.5140 -36.2709 81° East  Level FlightAware Approximate
Fri 03:34:00 AM 49.5376 -36.0451 81° East  Level FlightAware Approximate
Fri 03:35:00 AM 49.5608 -35.8191 81° East  Level FlightAware Approximate
Fri 03:36:00 AM 49.5835 -35.5928 81° East  Level FlightAware Approximate
Fri 03:36:00 AM 49.0000 -40.0000 77° East 537 618 33,000  Level ETMS Enhanced Traffic Management System
Fri 03:37:00 AM 49.6058 -35.3664 81° East  Level FlightAware Approximate
Fri 03:38:00 AM 49.6276 -35.1398 81° East  Level FlightAware Approximate
Fri 03:39:00 AM 49.6489 -34.9129 82° East  Level FlightAware Approximate
Fri 03:40:00 AM 49.6699 -34.6859 82° East  Level FlightAware Approximate
Fri 03:41:00 AM 49.6904 -34.4587 82° East  Level FlightAware Approximate
Fri 03:42:00 AM 49.6954 -34.1393 82° East 537 618 33,000  Level FlightAware Transoceanic
Fri 03:43:00 AM 49.7162 -33.9108 82° East 537 618 33,000  Level FlightAware Transoceanic
Fri 03:44:00 AM 49.7365 -33.6821 82° East 537 618 33,000  Level FlightAware Transoceanic
Fri 03:45:00 AM 49.7564 -33.4532 82° East 537 618 33,000  Level FlightAware Transoceanic
Fri 03:46:00 AM 49.7758 -33.2241 83° East 537 618 33,000  Level FlightAware Transoceanic
Fri 03:47:00 AM 49.7948 -32.9949 83° East 537 618 33,000  Level FlightAware Transoceanic
Fri 03:48:00 AM 49.8133 -32.7654 83° East 537 618 33,000  Level FlightAware Transoceanic
Fri 03:49:00 AM 49.8314 -32.5359 83° East 537 618 33,000  Level FlightAware Transoceanic
Fri 03:50:00 AM 49.8490 -32.3061 83° East 537 618 33,000  Level FlightAware Transoceanic
Fri 03:51:00 AM 49.8661 -32.0761 83° East 537 618 33,000  Level FlightAware Transoceanic
Fri 03:52:00 AM 49.8828 -31.8461 84° East 537 618 33,000  Level FlightAware Transoceanic
Fri 03:53:00 AM 49.8991 -31.6158 84° East 537 618 33,000  Level FlightAware Transoceanic
Fri 03:54:00 AM 49.9149 -31.3854 84° East 537 618 33,000  Level FlightAware Transoceanic
Fri 03:55:00 AM 49.9302 -31.1549 84° East 537 618 33,000  Level FlightAware Transoceanic
Fri 03:56:00 AM 49.9451 -30.9242 84° East 537 618 33,000  Level FlightAware Transoceanic
Fri 03:57:00 AM 49.9595 -30.6933 85° East 537 618 33,000  Level FlightAware Transoceanic
Fri 03:58:00 AM 49.9735 -30.4623 85° East 537 618 33,000  Level FlightAware Transoceanic
Fri 03:59:00 AM 49.9870 -30.2312 85° East 537 618 33,000 -77 Level FlightAware Transoceanic
Fri 04:00:00 AM 49.9999 -30.0012 85° East  Level FlightAware Approximate
Fri 04:01:00 AM 50.0131 -29.7711 85° East  Level FlightAware Approximate
Fri 04:02:00 AM 49.9872 -29.7724 95° East  Level FlightAware Approximate
Fri 04:03:00 AM 49.9737 -29.5425 95° East  Level FlightAware Approximate
Fri 04:04:00 AM 49.9599 -29.3127 95° East  Level FlightAware Approximate
Fri 04:05:00 AM 49.9455 -29.0830 95° East  Level FlightAware Approximate
Fri 04:06:00 AM 49.9308 -28.8535 96° East  Level FlightAware Approximate
Fri 04:07:00 AM 49.9155 -28.6242 96° East  Level FlightAware Approximate
Fri 04:08:00 AM 49.8998 -28.3950 96° East  Level FlightAware Approximate
Fri 04:09:00 AM 49.8837 -28.1659 96° East  Level FlightAware Approximate
Fri 04:10:00 AM 49.8671 -27.9370 96° East  Level FlightAware Approximate
Fri 04:11:00 AM 49.8501 -27.7082 97° East  Level FlightAware Approximate
Fri 04:12:00 AM 49.8326 -27.4796 97° East  Level FlightAware Approximate
Fri 04:13:00 AM 49.8146 -27.2512 97° East  Level FlightAware Approximate
Fri 04:14:00 AM 49.7962 -27.0230 97° East  Level FlightAware Approximate
Fri 04:15:00 AM 49.7774 -26.7949 97° East  Level FlightAware Approximate
Fri 04:16:00 AM 49.7581 -26.5670 97° East  Level FlightAware Approximate
Fri 04:17:00 AM 49.7384 -26.3393 98° East  Level FlightAware Approximate
Fri 04:18:00 AM 49.7182 -26.1118 98° East  Level FlightAware Approximate
Fri 04:19:00 AM 49.6976 -25.8845 98° East  Level FlightAware Approximate
Fri 04:20:00 AM 49.6765 -25.6573 98° East  Level FlightAware Approximate
Fri 04:21:00 AM 49.6550 -25.4304 98° East  Level FlightAware Approximate
Fri 04:22:00 AM 49.6330 -25.2036 98° East  Level FlightAware Approximate
Fri 04:23:00 AM 49.6107 -24.9771 99° East  Level FlightAware Approximate
Fri 04:24:00 AM 49.5878 -24.7508 99° East  Level FlightAware Approximate
Fri 04:25:00 AM 49.5645 -24.5247 99° East  Level FlightAware Approximate
Fri 04:26:00 AM 49.5408 -24.2988 99° East  Level FlightAware Approximate
Fri 04:27:00 AM 49.5167 -24.0731 99° East  Level FlightAware Approximate
Fri 04:28:00 AM 49.4921 -23.8477 99° East  Level FlightAware Approximate
Fri 04:29:00 AM 49.4670 -23.6225 100° East  Level FlightAware Approximate
Fri 04:30:00 AM 49.4416 -23.3975 100° East  Level FlightAware Approximate
Fri 04:31:00 AM 49.4157 -23.1728 100° East  Level FlightAware Approximate
Fri 04:32:00 AM 49.3893 -22.9482 100° East  Level FlightAware Approximate
Fri 04:33:00 AM 49.3625 -22.7240 100° East  Level FlightAware Approximate
Fri 04:34:00 AM 49.3353 -22.5000 100° East  Level FlightAware Approximate
Fri 04:35:00 AM 49.3077 -22.2762 101° East  Level FlightAware Approximate
Fri 04:36:00 AM 49.2796 -22.0527 101° East  Level FlightAware Approximate
Fri 04:37:00 AM 49.2511 -21.8294 101° East  Level FlightAware Approximate
Fri 04:38:00 AM 49.2222 -21.6064 101° East  Level FlightAware Approximate
Fri 04:39:00 AM 49.1928 -21.3837 101° East  Level FlightAware Approximate
Fri 04:40:00 AM 49.1631 -21.1612 101° East  Level FlightAware Approximate
Fri 04:41:00 AM 49.1328 -20.9390 102° East  Level FlightAware Approximate
Fri 04:42:00 AM 49.1022 -20.7171 102° East  Level FlightAware Approximate
Fri 04:43:00 AM 49.0711 -20.4954 102° East  Level FlightAware Approximate
Fri 04:44:00 AM 49.0396 -20.2741 102° East  Level FlightAware Approximate
Fri 04:45:00 AM 49.0077 -20.0530 102° East  Level FlightAware Approximate
Fri 04:46:00 AM 48.9965 -19.8281 92° East  Level FlightAware Approximate
Fri 04:47:00 AM 48.9916 -19.6020 92° East  Level FlightAware Approximate
Fri 04:48:00 AM 48.9862 -19.3759 92° East  Level FlightAware Approximate
Fri 04:49:00 AM 48.9804 -19.1499 92° East  Level FlightAware Approximate
Fri 04:50:00 AM 48.9741 -18.9239 92° East  Level FlightAware Approximate
Fri 04:51:00 AM 48.9674 -18.6980 93° East  Level FlightAware Approximate
Fri 04:52:00 AM 48.9603 -18.4721 93° East  Level FlightAware Approximate
Fri 04:53:00 AM 48.9527 -18.2463 93° East  Level FlightAware Approximate
Fri 04:54:00 AM 48.9447 -18.0206 93° East  Level FlightAware Approximate
Fri 04:55:00 AM 48.9362 -17.7950 93° East  Level FlightAware Approximate
Fri 04:56:00 AM 48.9273 -17.5694 93° East  Level FlightAware Approximate
Fri 04:57:00 AM 48.9179 -17.3440 94° East  Level FlightAware Approximate
Fri 04:58:00 AM 48.9082 -17.1186 94° East  Level FlightAware Approximate
Fri 04:59:00 AM 48.8979 -16.8933 94° East  Level FlightAware Approximate
Fri 05:00:00 AM 48.8873 -16.6681 94° East  Level FlightAware Approximate
Fri 05:01:00 AM 48.8762 -16.4429 94° East  Level FlightAware Approximate
Fri 05:02:00 AM 48.8647 -16.2179 94° East  Level FlightAware Approximate
Fri 05:03:00 AM 48.8527 -15.9930 95° East  Level FlightAware Approximate
Fri 05:04:00 AM 48.8403 -15.7682 95° East  Level FlightAware Approximate
Fri 05:05:00 AM 48.8274 -15.5436 95° East  Level FlightAware Approximate
Fri 05:06:00 AM 48.8141 -15.3190 95° East  Level FlightAware Approximate
Fri 05:07:00 AM 48.8004 -15.0946 95° East  Level FlightAware Approximate
Fri 05:08:00 AM 48.7862 -14.8702 95° East  Level FlightAware Approximate
Fri 05:09:00 AM 48.7716 -14.6461 96° East  Level FlightAware Approximate
Fri 05:10:00 AM 48.7566 -14.4220 96° East  Level FlightAware Approximate
Fri 05:11:00 AM 48.7412 -14.1981 96° East  Level FlightAware Approximate
Fri 05:12:00 AM 48.7253 -13.9743 96° East  Level FlightAware Approximate
Fri 05:13:00 AM 48.7089 -13.7507 96° East  Level FlightAware Approximate
Fri 05:14:00 AM 48.6922 -13.5272 96° East  Level FlightAware Approximate
Fri 05:15:00 AM 48.6750 -13.3038 97° East  Level FlightAware Approximate
Fri 05:16:00 AM 48.6574 -13.0807 97° East  Level FlightAware Approximate
Fri 05:17:00 AM 48.6393 -12.8576 97° East  Level FlightAware Approximate
Fri 05:18:00 AM 48.6208 -12.6348 97° East  Level FlightAware Approximate
Fri 05:19:00 AM 48.6019 -12.4121 97° East  Level FlightAware Approximate
Fri 05:20:00 AM 48.5826 -12.1895 97° East  Level FlightAware Approximate
Fri 05:21:00 AM 48.5628 -11.9672 98° East  Level FlightAware Approximate
Fri 05:22:00 AM 48.5426 -11.7450 98° East  Level FlightAware Approximate
Fri 05:23:00 AM 48.5220 -11.5230 98° East  Level FlightAware Approximate
Fri 05:24:00 AM 48.5009 -11.3012 98° East  Level FlightAware Approximate
Fri 05:25:00 AM 48.4794 -11.0795 98° East  Level FlightAware Approximate
Fri 05:26:00 AM 48.4575 -10.8581 98° East  Level FlightAware Approximate
Fri 05:27:00 AM 48.4353 -10.6368 99° East  Level FlightAware Approximate
Fri 05:28:00 AM 48.4126 -10.4157 99° East  Level FlightAware Approximate
Fri 05:29:00 AM 48.3895 -10.1949 99° East  Level FlightAware Approximate
Fri 05:30:00 AM 48.3659 -9.9742 99° East  Level FlightAware Approximate
Fri 05:31:00 AM 48.3419 -9.7537 99° East  Level FlightAware Approximate
Fri 05:32:00 AM 48.3176 -9.5335 99° East  Level FlightAware Approximate
Fri 05:33:00 AM 48.2928 -9.3134 100° East  Level FlightAware Approximate
Fri 05:34:00 AM 48.2676 -9.0936 100° East  Level FlightAware Approximate
Fri 05:35:00 AM 48.2419 -8.8740 100° East  Level FlightAware Approximate
Fri 05:36:00 AM 48.2159 -8.6546 100° East  Level FlightAware Approximate
Fri 05:37:00 AM 48.1894 -8.4355 100° East  Level FlightAware Approximate
Fri 05:38:00 AM 48.1625 -8.2165 100° East  Level FlightAware Approximate
Fri 05:39:00 AM 48.1352 -7.9978 101° East  Level FlightAware Approximate
Fri 05:40:00 AM 48.1073 -7.7794 101° East  Level FlightAware Approximate
Fri 05:41:00 AM 48.0791 -7.5612 101° East  Level FlightAware Approximate
Fri 05:42:00 AM 48.0504 -7.3432 101° East  Level FlightAware Approximate
Fri 05:43:00 AM 48.0213 -7.1255 101° East  Level FlightAware Approximate
Fri 05:44:00 AM 47.9918 -6.9081 101° East  Level FlightAware Approximate
Fri 05:45:00 AM 47.9619 -6.6909 102° East  Level FlightAware Approximate
Fri 05:46:00 AM 47.9316 -6.4739 102° East  Level FlightAware Approximate
Fri 05:47:00 AM 47.9009 -6.2572 102° East  Level FlightAware Approximate
Fri 05:48:00 AM 47.8698 -6.0408 102° East  Level FlightAware Approximate
Fri 05:49:00 AM 47.8383 -5.8246 102° East  Level FlightAware Approximate
Fri 05:50:00 AM 47.8063 -5.6087 102° East  Level FlightAware Approximate
Fri 05:51:00 AM 47.7740 -5.3930 103° East  Level FlightAware Approximate
Fri 05:52:00 AM 47.7412 -5.1776 103° East  Level FlightAware Approximate
Fri 05:53:00 AM 47.7081 -4.9625 103° East  Level FlightAware Approximate
Fri 05:54:00 AM 47.6745 -4.7477 103° East  Level FlightAware Approximate
Fri 05:55:00 AM 47.6406 -4.5331 103° East  Level FlightAware Approximate
Fri 05:56:00 AM 47.6062 -4.3189 103° East  Level FlightAware Approximate
Fri 05:57:00 AM 47.5715 -4.1049 103° East  Level FlightAware Approximate
Fri 05:58:00 AM 47.5364 -3.8911 104° East  Level FlightAware Approximate
Fri 05:59:00 AM 47.5008 -3.6777 104° East  Level FlightAware Approximate
Fri 06:00:00 AM 47.4649 -3.4646 104° East  Level FlightAware Approximate
Fri 06:01:00 AM 47.4285 -3.2518 104° East  Level FlightAware Approximate
Fri 06:02:00 AM 47.3918 -3.0392 104° East  Level FlightAware Approximate
Fri 06:03:00 AM 47.3547 -2.8270 104° East  Level FlightAware Approximate
Fri 06:04:00 AM 47.3172 -2.6150 105° East  Level FlightAware Approximate
Fri 06:05:00 AM 47.2793 -2.4034 105° East  Level FlightAware Approximate
Fri 06:06:00 AM 47.2410 -2.1921 105° East  Level FlightAware Approximate
Fri 06:07:00 AM 47.2023 -1.9810 105° East  Level FlightAware Approximate
Fri 06:08:00 AM 47.1633 -1.7703 105° East  Level FlightAware Approximate
Fri 06:09:00 AM 47.1238 -1.5599 105° East  Level FlightAware Approximate
Fri 06:10:00 AM 47.0840 -1.3498 105° East  Level FlightAware Approximate
Fri 06:11:00 AM 47.0438 -1.1400 106° East  Level FlightAware Approximate
Fri 06:12:00 AM 47.0032 -0.9306 106° East  Level FlightAware Approximate
Fri 06:13:00 AM 46.9622 -0.7214 106° East  Level FlightAware Approximate
Fri 06:14:00 AM 46.9208 -0.5126 106° East  Level FlightAware Approximate
Fri 06:15:00 AM 46.8791 -0.3041 106° East  Level FlightAware Approximate
Fri 06:16:00 AM 46.8370 -0.0959 106° East  Level FlightAware Approximate
Fri 06:17:00 AM 46.7945 0.1119 107° East  Level FlightAware Approximate
Fri 06:18:00 AM 46.7516 0.3194 107° East  Level FlightAware Approximate
Fri 06:19:00 AM 46.7084 0.5266 107° East  Level FlightAware Approximate
Fri 06:20:00 AM 46.6648 0.7335 107° East  Level FlightAware Approximate
Fri 06:21:00 AM 46.6208 0.9400 107° East  Level FlightAware Approximate
Fri 06:22:00 AM 46.5764 1.1462 107° East  Level FlightAware Approximate
Fri 06:23:00 AM 46.5317 1.3520 107° East  Level FlightAware Approximate
Fri 06:24:00 AM 46.4866 1.5575 108° East  Level FlightAware Approximate
Fri 06:25:00 AM 46.4411 1.7627 108° East  Level FlightAware Approximate
Fri 06:26:00 AM 46.3953 1.9675 108° East  Level FlightAware Approximate
Fri 06:27:00 AM 46.3491 2.1720 108° East  Level FlightAware Approximate
Fri 06:28:00 AM 46.3025 2.3761 108° East  Level FlightAware Approximate
Fri 06:29:00 AM 46.2556 2.5799 108° East  Level FlightAware Approximate
Fri 06:30:00 AM 46.2083 2.7833 108° East  Level FlightAware Approximate
Fri 06:31:00 AM 46.1607 2.9864 109° East  Level FlightAware Approximate
Fri 06:32:00 AM 46.1127 3.1891 109° East  Level FlightAware Approximate
Fri 06:33:00 AM 46.0643 3.3915 109° East  Level FlightAware Approximate
Fri 06:34:00 AM 46.0156 3.5935 109° East  Level FlightAware Approximate
Fri 06:35:00 AM 45.9665 3.7952 109° East  Level FlightAware Approximate
Fri 06:36:00 AM 45.9171 3.9965 109° East  Level FlightAware Approximate
Fri 06:37:00 AM 45.8673 4.1974 110° East  Level FlightAware Approximate
Fri 06:38:00 AM 45.8172 4.3980 110° East  Level FlightAware Approximate
Fri 06:39:00 AM 45.7667 4.5982 110° East  Level FlightAware Approximate
Fri 06:40:00 AM 45.7159 4.7980 110° East  Level FlightAware Approximate
Fri 06:41:00 AM 45.6647 4.9975 110° East  Level FlightAware Approximate
Fri 06:42:00 AM 45.6132 5.1967 110° East  Level FlightAware Approximate
Fri 06:43:00 AM 45.5613 5.3954 110° East  Level FlightAware Approximate
Fri 06:44:00 AM 45.5091 5.5938 111° Southeast  Level FlightAware Approximate
Fri 06:45:00 AM 45.4565 5.7918 111° Southeast  Level FlightAware Approximate
Fri 06:46:00 AM 45.4036 5.9895 111° Southeast  Level FlightAware Approximate
Fri 06:47:00 AM 45.3504 6.1868 111° Southeast  Level FlightAware Approximate
Fri 06:48:00 AM 45.2968 6.3837 111° Southeast  Level FlightAware Approximate
Fri 06:49:00 AM 45.2429 6.5802 111° Southeast  Level FlightAware Approximate
Fri 06:50:00 AM 45.1886 6.7764 111° Southeast  Level FlightAware Approximate
Fri 06:51:00 AM 45.1341 6.9721 112° Southeast  Level FlightAware Approximate
Fri 06:52:00 AM 45.0791 7.1676 112° Southeast  Level FlightAware Approximate
Fri 06:53:00 AM 45.0239 7.3626 112° Southeast  Level FlightAware Approximate
Fri 06:54:00 AM 44.9683 7.5572 112° Southeast  Level FlightAware Approximate
Fri 06:55:00 AM 44.9124 7.7515 112° Southeast  Level FlightAware Approximate
Fri 06:56:00 AM 44.8562 7.9454 112° Southeast  Level FlightAware Approximate
Fri 06:57:00 AM 44.7996 8.1389 112° Southeast  Level FlightAware Approximate
Fri 06:58:00 AM 44.7427 8.3321 112° Southeast  Level FlightAware Approximate
Fri 06:59:00 AM 44.6855 8.5248 113° Southeast  Level FlightAware Approximate
Fri 07:00:00 AM 44.6279 8.7172 113° Southeast  Level FlightAware Approximate
Fri 07:01:00 AM 44.5700 8.9092 113° Southeast  Level FlightAware Approximate
Fri 07:02:00 AM 44.5119 9.1008 113° Southeast  Level FlightAware Approximate
Fri 07:03:00 AM 44.4534 9.2921 113° Southeast  Level FlightAware Approximate
Fri 07:04:00 AM 44.3945 9.4829 113° Southeast  Level FlightAware Approximate
Fri 07:05:00 AM 44.3354 9.6734 113° Southeast  Level FlightAware Approximate
Fri 07:06:00 AM 44.2759 9.8634 114° Southeast  Level FlightAware Approximate
Fri 07:07:00 AM 44.2161 10.0531 114° Southeast  Level FlightAware Approximate
Fri 07:08:00 AM 44.1561 10.2424 114° Southeast  Level FlightAware Approximate
Fri 07:09:00 AM 44.0957 10.4313 114° Southeast  Level FlightAware Approximate
Fri 07:10:00 AM 44.0350 10.6199 114° Southeast  Level FlightAware Approximate
Fri 07:11:00 AM 43.9739 10.8080 114° Southeast  Level FlightAware Approximate
Fri 07:12:00 AM 43.9126 10.9958 114° Southeast  Level FlightAware Approximate
Fri 07:13:00 AM 43.8510 11.1831 114° Southeast  Level FlightAware Approximate
Fri 07:14:00 AM 43.7890 11.3701 115° Southeast  Level FlightAware Approximate
Fri 07:15:00 AM 43.7268 11.5567 115° Southeast  Level FlightAware Approximate
Fri 07:16:00 AM 43.6642 11.7429 115° Southeast  Level FlightAware Approximate
Fri 07:17:00 AM 43.6014 11.9287 115° Southeast  Level FlightAware Approximate
Fri 07:18:00 AM 43.5382 12.1142 115° Southeast  Level FlightAware Approximate
Fri 07:19:00 AM 43.4748 12.2992 115° Southeast  Level FlightAware Approximate
Fri 07:20:00 AM 43.4110 12.4839 115° Southeast  Level FlightAware Approximate
Fri 07:21:00 AM 43.3470 12.6681 115° Southeast  Level FlightAware Approximate
Fri 07:22:00 AM 43.2827 12.8520 116° Southeast  Level FlightAware Approximate
Fri 07:23:00 AM 43.2180 13.0355 116° Southeast  Level FlightAware Approximate
Fri 07:24:00 AM 43.1531 13.2186 116° Southeast  Level FlightAware Approximate
Fri 07:25:00 AM 43.0879 13.4013 116° Southeast  Level FlightAware Approximate
Fri 07:26:00 AM 43.0224 13.5836 116° Southeast  Level FlightAware Approximate
Fri 07:27:00 AM 42.9566 13.7655 116° Southeast  Level FlightAware Approximate
Fri 07:28:00 AM 42.8905 13.9470 116° Southeast  Level FlightAware Approximate
Fri 07:29:00 AM 42.8241 14.1282 116° Southeast  Level FlightAware Approximate
Fri 07:30:00 AM 42.7575 14.3089 117° Southeast  Level FlightAware Approximate
Fri 07:31:00 AM 42.6906 14.4893 117° Southeast  Level FlightAware Approximate
Fri 07:32:00 AM 42.6233 14.6693 117° Southeast  Level FlightAware Approximate
Fri 07:33:00 AM 42.5558 14.8489 117° Southeast  Level FlightAware Approximate
Fri 07:34:00 AM 42.4880 15.0281 117° Southeast  Level FlightAware Approximate
Fri 07:35:00 AM 42.4200 15.2069 117° Southeast  Level FlightAware Approximate
Fri 07:36:00 AM 42.3517 15.3853 117° Southeast  Level FlightAware Approximate
Fri 07:37:00 AM 42.2830 15.5633 117° Southeast  Level FlightAware Approximate
Fri 07:38:00 AM 42.2141 15.7410 118° Southeast  Level FlightAware Approximate
Fri 07:39:00 AM 42.1450 15.9183 118° Southeast  Level FlightAware Approximate
Fri 07:40:00 AM 42.0756 16.0951 118° Southeast  Level FlightAware Approximate
Fri 07:41:00 AM 42.0059 16.2716 118° Southeast  Level FlightAware Approximate
Fri 07:42:00 AM 41.9359 16.4477 118° Southeast  Level FlightAware Approximate
Fri 07:43:00 AM 41.8657 16.6234 118° Southeast  Level FlightAware Approximate
Fri 07:44:00 AM 41.7951 16.7987 118° Southeast  Level FlightAware Approximate
Fri 07:45:00 AM 41.7244 16.9737 118° Southeast  Level FlightAware Approximate
Fri 07:46:00 AM 41.6533 17.1482 119° Southeast  Level FlightAware Approximate
Fri 07:47:00 AM 41.5820 17.3224 119° Southeast  Level FlightAware Approximate
Fri 07:48:00 AM 41.5105 17.4962 119° Southeast  Level FlightAware Approximate
Fri 07:49:00 AM 41.4386 17.6696 119° Southeast  Level FlightAware Approximate
Fri 07:50:00 AM 41.3665 17.8426 119° Southeast  Level FlightAware Approximate
Fri 07:51:00 AM 41.2942 18.0152 119° Southeast  Level FlightAware Approximate
Fri 07:52:00 AM 41.2216 18.1875 119° Southeast  Level FlightAware Approximate
Fri 07:53:00 AM 41.1487 18.3593 119° Southeast  Level FlightAware Approximate
Fri 07:54:00 AM 41.0756 18.5308 119° Southeast  Level FlightAware Approximate
Fri 07:55:00 AM 41.0023 18.7019 120° Southeast  Level FlightAware Approximate
Fri 07:56:00 AM 40.9286 18.8726 120° Southeast  Level FlightAware Approximate
Fri 07:57:00 AM 40.8548 19.0430 120° Southeast  Level FlightAware Approximate
Fri 07:58:00 AM 40.7807 19.2129 120° Southeast  Level FlightAware Approximate
Fri 07:59:00 AM 40.7063 19.3825 120° Southeast  Level FlightAware Approximate
Fri 08:00:00 AM 40.6317 19.5517 120° Southeast  Level FlightAware Approximate
Fri 08:01:00 AM 40.5568 19.7205 120° Southeast  Level FlightAware Approximate
Fri 08:02:00 AM 40.4817 19.8890 120° Southeast  Level FlightAware Approximate
Fri 08:03:00 AM 40.4063 20.0570 120° Southeast  Level FlightAware Approximate
Fri 08:04:00 AM 40.3307 20.2247 121° Southeast  Level FlightAware Approximate
Fri 08:05:00 AM 40.2549 20.3920 121° Southeast  Level FlightAware Approximate
Fri 08:06:00 AM 40.1788 20.5590 121° Southeast  Level FlightAware Approximate
Fri 08:07:00 AM 40.1025 20.7255 121° Southeast  Level FlightAware Approximate
Fri 08:08:00 AM 40.0260 20.8917 121° Southeast  Level FlightAware Approximate
Fri 08:09:00 AM 39.9492 21.0575 121° Southeast  Level FlightAware Approximate
Fri 08:10:00 AM 39.8721 21.2230 121° Southeast  Level FlightAware Approximate
Fri 08:11:00 AM 39.7949 21.3881 121° Southeast  Level FlightAware Approximate
Fri 08:12:00 AM 39.7174 21.5527 121° Southeast  Level FlightAware Approximate
Fri 08:13:00 AM 39.6397 21.7171 122° Southeast  Level FlightAware Approximate
Fri 08:14:00 AM 39.5617 21.8810 122° Southeast  Level FlightAware Approximate
Fri 08:15:00 AM 39.4835 22.0446 122° Southeast  Level FlightAware Approximate
Fri 08:16:00 AM 39.4051 22.2079 122° Southeast  Level FlightAware Approximate
Fri 08:17:00 AM 39.3265 22.3707 122° Southeast  Level FlightAware Approximate
Fri 08:18:00 AM 39.2476 22.5332 122° Southeast  Level FlightAware Approximate
Fri 08:19:00 AM 39.1685 22.6953 122° Southeast  Level FlightAware Approximate
Fri 08:20:00 AM 39.0892 22.8571 122° Southeast  Level FlightAware Approximate
Fri 08:21:00 AM 39.0096 23.0185 122° Southeast  Level FlightAware Approximate
Fri 08:22:00 AM 38.9299 23.1795 122° Southeast  Level FlightAware Approximate
Fri 08:23:00 AM 38.8499 23.3402 123° Southeast  Level FlightAware Approximate
Fri 08:24:00 AM 38.7697 23.5005 123° Southeast  Level FlightAware Approximate
Fri 08:25:00 AM 38.6893 23.6605 123° Southeast  Level FlightAware Approximate
Fri 08:26:00 AM 38.6086 23.8200 123° Southeast  Level FlightAware Approximate
Fri 08:27:00 AM 38.5278 23.9793 123° Southeast  Level FlightAware Approximate
Fri 08:28:00 AM 38.4467 24.1381 123° Southeast  Level FlightAware Approximate
Fri 08:29:00 AM 38.3654 24.2967 123° Southeast  Level FlightAware Approximate
Fri 08:30:00 AM 38.2839 24.4548 123° Southeast  Level FlightAware Approximate
Fri 08:31:00 AM 38.2022 24.6126 123° Southeast  Level FlightAware Approximate
Fri 08:32:00 AM 38.1203 24.7701 123° Southeast  Level FlightAware Approximate
Fri 08:33:00 AM 38.0382 24.9272 124° Southeast  Level FlightAware Approximate
Fri 08:34:00 AM 37.9558 25.0839 124° Southeast  Level FlightAware Approximate
Fri 08:35:00 AM 37.8733 25.2403 124° Southeast  Level FlightAware Approximate
Fri 08:36:00 AM 37.7905 25.3964 124° Southeast  Level FlightAware Approximate
Fri 08:37:00 AM 37.7076 25.5521 124° Southeast  Level FlightAware Approximate
Fri 08:38:00 AM 37.6244 25.7074 124° Southeast  Level FlightAware Approximate
Fri 08:39:00 AM 37.5410 25.8624 124° Southeast  Level FlightAware Approximate
Fri 08:40:00 AM 37.4575 26.0171 124° Southeast  Level FlightAware Approximate
Fri 08:41:00 AM 37.3737 26.1714 124° Southeast  Level FlightAware Approximate
Fri 08:42:00 AM 37.2897 26.3253 124° Southeast  Level FlightAware Approximate
Fri 08:43:00 AM 37.2055 26.4790 124° Southeast  Level FlightAware Approximate
Fri 08:44:00 AM 37.1212 26.6322 125° Southeast  Level FlightAware Approximate
Fri 08:45:00 AM 37.0366 26.7852 125° Southeast  Level FlightAware Approximate
Fri 08:46:00 AM 36.9519 26.9377 125° Southeast  Level FlightAware Approximate
Fri 08:47:00 AM 36.8669 27.0900 125° Southeast  Level FlightAware Approximate
Fri 08:48:00 AM 36.7817 27.2419 125° Southeast  Level FlightAware Approximate
Fri 08:49:00 AM 36.6964 27.3935 125° Southeast  Level FlightAware Approximate
Fri 08:50:00 AM 36.6103 27.5443 125° Southeast  Level FlightAware Approximate
Fri 08:51:00 AM 36.5240 27.6946 126° Southeast  Level FlightAware Approximate
Fri 08:52:00 AM 36.4375 27.8446 126° Southeast  Level FlightAware Approximate
Fri 08:53:00 AM 36.3507 27.9943 126° Southeast  Level FlightAware Approximate
Fri 08:54:00 AM 36.2638 28.1437 126° Southeast  Level FlightAware Approximate
Fri 08:55:00 AM 36.1767 28.2927 126° Southeast  Level FlightAware Approximate
Fri 08:56:00 AM 36.0910 28.4427 125° Southeast  Level FlightAware Approximate
Fri 08:57:00 AM 36.0066 28.5938 125° Southeast  Level FlightAware Approximate
Fri 08:58:00 AM 35.9221 28.7445 125° Southeast  Level FlightAware Approximate
Fri 08:59:00 AM 35.8373 28.8950 125° Southeast  Level FlightAware Approximate
Fri 09:00:00 AM 35.7524 29.0451 125° Southeast  Level FlightAware Approximate
Fri 09:01:00 AM 35.6668 29.1945 126° Southeast  Level FlightAware Approximate
Fri 09:02:00 AM 35.5791 29.3418 126° Southeast  Level FlightAware Approximate
Fri 09:03:00 AM 35.4911 29.4887 126° Southeast  Level FlightAware Approximate
Fri 09:04:00 AM 35.4030 29.6354 126° Southeast  Level FlightAware Approximate
Fri 09:05:00 AM 35.3147 29.7817 126° Southeast  Level FlightAware Approximate
Fri 09:06:00 AM 35.2262 29.9277 127° Southeast  Level FlightAware Approximate
Fri 09:07:00 AM 35.1376 30.0734 127° Southeast  Level FlightAware Approximate
Fri 09:08:00 AM 35.0488 30.2188 127° Southeast  Level FlightAware Approximate
Fri 09:09:00 AM 34.9598 30.3638 127° Southeast  Level FlightAware Approximate
Fri 09:10:00 AM 34.8706 30.5086 127° Southeast  Level FlightAware Approximate
Fri 09:11:00 AM 34.7813 30.6530 127° Southeast  Level FlightAware Approximate
Fri 09:12:00 AM 34.6918 30.7971 127° Southeast  Level FlightAware Approximate
Fri 09:13:00 AM 34.6021 30.9410 127° Southeast  Level FlightAware Approximate
Fri 09:14:00 AM 34.5123 31.0844 127° Southeast  Level FlightAware Approximate
Fri 09:15:00 AM 34.4223 31.2276 127° Southeast  Level FlightAware Approximate
Fri 09:16:00 AM 34.3321 31.3705 127° Southeast  Level FlightAware Approximate
Fri 09:17:00 AM 34.2417 31.5131 127° Southeast  Level FlightAware Approximate
Fri 09:18:00 AM 34.1512 31.6553 128° Southeast  Level FlightAware Approximate
Fri 09:19:00 AM 34.0606 31.7973 128° Southeast  Level FlightAware Approximate
Fri 09:20:00 AM 33.9697 31.9390 128° Southeast  Level FlightAware Approximate
Fri 09:21:00 AM 33.8787 32.0803 128° Southeast  Level FlightAware Approximate
Fri 09:22:00 AM 33.7876 32.2214 128° Southeast  Level FlightAware Approximate
Fri 09:23:00 AM 33.6963 32.3621 128° Southeast  Level FlightAware Approximate
Fri 09:24:00 AM 33.6048 32.5026 128° Southeast  Level FlightAware Approximate
Fri 09:25:00 AM 33.5131 32.6427 128° Southeast  Level FlightAware Approximate
Fri 09:26:00 AM 33.4213 32.7826 128° Southeast  Level FlightAware Approximate
Fri 09:27:00 AM 33.3294 32.9221 128° Southeast  Level FlightAware Approximate
Fri 09:28:00 AM 33.2371 33.0612 129° Southeast  Level FlightAware Approximate
Fri 09:29:00 AM 33.1394 33.1939 140° Southeast  Level FlightAware Approximate
Fri 09:30:00 AM 33.0476 33.3320 126° Southeast  Level FlightAware Approximate
Fri 09:31:00 AM 32.9606 33.4755 129° Southeast  Level FlightAware Approximate
Fri 09:32:00 AM 32.8667 33.6124 129° Southeast  Level FlightAware Approximate
Fri 09:33:00 AM 32.7724 33.7488 130° Southeast  Level FlightAware Approximate
Fri 09:34:00 AM 32.6770 33.8840 130° Southeast  Level FlightAware Approximate
Fri 09:35:00 AM 32.5814 34.0189 130° Southeast  Level FlightAware Approximate
Fri 09:36:00 AM 32.4863 34.1540 128° Southeast  Level FlightAware Approximate
Fri 09:37:00 AM 32.3942 34.2920 128° Southeast  Level FlightAware Approximate
Fri 09:38:00 AM 32.3023 34.4300 128° Southeast  Level FlightAware Approximate
Fri 09:39:00 AM 32.2104 34.5678 128° Southeast  Level FlightAware Approximate
Fri 09:40:00 AM 32.1132 34.7002 133° Southeast  Level FlightAware Approximate
Fri 09:41:00 AM 32.0217 34.8377 131° Southeast  Level FlightAware Approximate
Fri 09:42:00 AM 32.0000 34.8667 131° Southeast  Level FlightAware Approximate
Fri 09:43:00 AM 32.0095 34.8769 131° Southeast  Level Estimated
Fri 09:44:00 AM 32.0095 34.8769 131° Southeast  Level Estimated
Fri 09:45:00 AM 32.0095 34.8769 131° Southeast  Level Estimated
Fri 09:45:18 AM 32.4340 34.2340 131° Southeast 282 325 6,100  Level FlightAware ADS-B
Fri 09:45:44 AM 32.4100 34.2630 134° Southeast 282 325 6,100  Level FlightAware ADS-B
Fri 09:46:04 AM 32.3920 34.2860 133° Southeast 283 326 6,100  Level FlightAware ADS-B
Fri 09:46:24 AM 32.3770 34.3040 135° Southeast 283 326 6,100  Level FlightAware ADS-B
Fri 09:46:49 AM 32.3540 34.3320 134° Southeast 285 328 6,100 -109 Level FlightAware ADS-B
Fri 09:47:19 AM 32.3260 34.3690 132° Southeast 285 328 6,000 -327 Descending FlightAware ADS-B
Fri 09:47:44 AM 32.3090 34.4000 123° Southeast 277 319 5,800 -400 Descending FlightAware ADS-B
Fri 09:48:04 AM 32.2960 34.4280 119° Southeast 265 305 5,700 -343 Descending FlightAware ADS-B
Fri 09:48:19 AM 32.2880 34.4430 122° Southeast 257 296 5,600 -400 Descending FlightAware ADS-B
Fri 09:48:34 AM 32.2790 34.4600 122° Southeast 248 285 5,500 -480 Descending FlightAware ADS-B
Fri 09:49:09 AM 32.2550 34.5050 122° Southeast 243 280 5,200 -400 Descending FlightAware ADS-B
Fri 09:49:34 AM 32.2410 34.5320 122° Southeast 242 278 5,100 -130 Descending FlightAware ADS-B
Fri 09:49:55 AM 32.2290 34.5540 123° Southeast 243 280 5,100  Level FlightAware ADS-B
Fri 09:50:19 AM 32.2150 34.5790 123° Southeast 243 280 5,100  Level FlightAware ADS-B
Fri 09:50:39 AM 32.2020 34.6030 123° Southeast 230 265 5,100 150 Level FlightAware ADS-B
Fri 09:50:59 AM 32.1910 34.6230 123° Southeast 218 251 5,200 133 Climbing FlightAware ADS-B
Fri 09:51:24 AM 32.1800 34.6440 122° Southeast 200 230 5,200  Level FlightAware ADS-B
Fri 09:51:49 AM 32.1690 34.6630 124° Southeast 200 230 5,200  Level FlightAware ADS-B
Fri 09:54:00 AM 32.0000 34.8667 131° Southeast  Level FlightAware Approximate

Login

Don't have an account? Register now (free) for customized features, flight alerts, and more!